sensor_id;sensor_type;location;lat;lon;timestamp;pressure;altitude;pressure_sealevel;temperature;humidity
61761;BME280;47664;51.660;-0.100;2023-07-16T00:00:01;99663.62;;;15.88;59.49
61761;BME280;47664;51.660;-0.100;2023-07-16T00:02:28;99655.98;;;15.59;61.03
61761;BME280;47664;51.660;-0.100;2023-07-16T00:04:56;99667.25;;;15.74;60.21
61761;BME280;47664;51.660;-0.100;2023-07-16T00:07:23;99668.81;;;15.89;60.09
61761;BME280;47664;51.660;-0.100;2023-07-16T00:09:51;99667.41;;;15.73;61.02
61761;BME280;47664;51.660;-0.100;2023-07-16T00:12:18;99672.10;;;15.52;60.23
61761;BME280;47664;51.660;-0.100;2023-07-16T00:14:45;99676.11;;;15.57;61.21
61761;BME280;47664;51.660;-0.100;2023-07-16T00:17:13;99679.18;;;15.34;61.61
61761;BME280;47664;51.660;-0.100;2023-07-16T00:19:40;99667.26;;;15.70;61.13
61761;BME280;47664;51.660;-0.100;2023-07-16T00:22:07;99678.43;;;15.62;61.16
61761;BME280;47664;51.660;-0.100;2023-07-16T00:24:34;99682.47;;;15.07;62.14
61761;BME280;47664;51.660;-0.100;2023-07-16T00:27:06;99681.27;;;15.09;62.32
61761;BME280;47664;51.660;-0.100;2023-07-16T00:29:33;99681.26;;;14.97;62.17
61761;BME280;47664;51.660;-0.100;2023-07-16T00:32:01;99688.55;;;14.66;63.24
61761;BME280;47664;51.660;-0.100;2023-07-16T00:34:32;99689.20;;;14.90;62.60
61761;BME280;47664;51.660;-0.100;2023-07-16T00:37:00;99688.75;;;15.39;61.58
61761;BME280;47664;51.660;-0.100;2023-07-16T00:39:27;99692.82;;;15.43;60.68
61761;BME280;47664;51.660;-0.100;2023-07-16T00:41:55;99681.56;;;15.60;60.45
61761;BME280;47664;51.660;-0.100;2023-07-16T00:44:22;99687.54;;;15.23;60.68
61761;BME280;47664;51.660;-0.100;2023-07-16T00:46:50;99688.35;;;15.88;60.40
61761;BME280;47664;51.660;-0.100;2023-07-16T00:49:17;99695.58;;;15.07;61.02
61761;BME280;47664;51.660;-0.100;2023-07-16T00:51:45;99691.51;;;15.57;60.51
61761;BME280;47664;51.660;-0.100;2023-07-16T00:54:13;99685.02;;;15.90;59.73
61761;BME280;47664;51.660;-0.100;2023-07-16T00:56:40;99689.73;;;15.32;60.32
61761;BME280;47664;51.660;-0.100;2023-07-16T00:59:07;99698.58;;;15.29;61.09
61761;BME280;47664;51.660;-0.100;2023-07-16T01:01:35;99700.99;;;15.40;61.80
61761;BME280;47664;51.660;-0.100;2023-07-16T01:04:03;99703.80;;;15.48;60.98
61761;BME280;47664;51.660;-0.100;2023-07-16T01:06:34;99701.06;;;15.31;60.61
61761;BME280;47664;51.660;-0.100;2023-07-16T01:09:15;99707.13;;;15.60;59.66
61761;BME280;47664;51.660;-0.100;2023-07-16T01:11:43;99701.05;;;15.49;59.63
61761;BME280;47664;51.660;-0.100;2023-07-16T01:14:12;99703.39;;;15.79;59.82
61761;BME280;47664;51.660;-0.100;2023-07-16T01:16:40;99711.04;;;15.36;60.76
61761;BME280;47664;51.660;-0.100;2023-07-16T01:19:07;99719.71;;;15.23;61.21
61761;BME280;47664;51.660;-0.100;2023-07-16T01:21:37;99714.09;;;15.32;60.34
61761;BME280;47664;51.660;-0.100;2023-07-16T01:26:32;99715.50;;;15.72;61.41
61761;BME280;47664;51.660;-0.100;2023-07-16T01:29:18;99710.74;;;15.27;60.68
61761;BME280;47664;51.660;-0.100;2023-07-16T01:31:50;99734.41;;;15.49;60.48
61761;BME280;47664;51.660;-0.100;2023-07-16T01:34:22;99732.31;;;14.99;61.35
61761;BME280;47664;51.660;-0.100;2023-07-16T01:36:52;99736.00;;;15.57;61.04
61761;BME280;47664;51.660;-0.100;2023-07-16T01:39:19;99734.86;;;15.12;61.38
61761;BME280;47664;51.660;-0.100;2023-07-16T01:41:51;99739.34;;;15.50;60.48
61761;BME280;47664;51.660;-0.100;2023-07-16T01:44:18;99740.71;;;15.34;59.61
61761;BME280;47664;51.660;-0.100;2023-07-16T01:46:49;99741.13;;;15.74;59.64
61761;BME280;47664;51.660;-0.100;2023-07-16T01:49:21;99746.88;;;15.41;60.27
61761;BME280;47664;51.660;-0.100;2023-07-16T01:51:48;99750.52;;;15.45;60.37
61761;BME280;47664;51.660;-0.100;2023-07-16T01:54:15;99748.33;;;15.04;61.12
61761;BME280;47664;51.660;-0.100;2023-07-16T01:56:42;99757.84;;;15.02;61.94
61761;BME280;47664;51.660;-0.100;2023-07-16T01:59:09;99759.64;;;15.42;61.48
61761;BME280;47664;51.660;-0.100;2023-07-16T02:01:36;99759.52;;;15.02;60.93
61761;BME280;47664;51.660;-0.100;2023-07-16T02:04:03;99762.07;;;15.29;60.29
61761;BME280;47664;51.660;-0.100;2023-07-16T02:06:30;99764.12;;;15.59;59.63
61761;BME280;47664;51.660;-0.100;2023-07-16T02:08:57;99761.91;;;15.02;60.92
61761;BME280;47664;51.660;-0.100;2023-07-16T02:11:24;99760.93;;;14.44;61.25
61761;BME280;47664;51.660;-0.100;2023-07-16T02:13:51;99767.79;;;14.36;61.42
61761;BME280;47664;51.660;-0.100;2023-07-16T02:16:18;99771.83;;;14.56;60.72
61761;BME280;47664;51.660;-0.100;2023-07-16T02:18:45;99770.43;;;14.72;59.79
61761;BME280;47664;51.660;-0.100;2023-07-16T02:21:18;99764.15;;;14.98;59.41
61761;BME280;47664;51.660;-0.100;2023-07-16T02:23:45;99765.48;;;14.81;60.12
61761;BME280;47664;51.660;-0.100;2023-07-16T02:26:12;99773.25;;;15.00;59.27
61761;BME280;47664;51.660;-0.100;2023-07-16T02:28:39;99778.39;;;14.79;60.01
61761;BME280;47664;51.660;-0.100;2023-07-16T02:31:06;99781.83;;;14.86;60.24
61761;BME280;47664;51.660;-0.100;2023-07-16T02:33:33;99777.71;;;14.87;59.84
61761;BME280;47664;51.660;-0.100;2023-07-16T02:36:00;99778.31;;;15.41;58.50
61761;BME280;47664;51.660;-0.100;2023-07-16T02:38:28;99783.02;;;14.90;58.41
61761;BME280;47664;51.660;-0.100;2023-07-16T02:40:55;99775.44;;;14.91;59.43
61761;BME280;47664;51.660;-0.100;2023-07-16T02:43:22;99784.15;;;14.68;58.79
61761;BME280;47664;51.660;-0.100;2023-07-16T02:45:49;99789.94;;;15.00;58.63
61761;BME280;47664;51.660;-0.100;2023-07-16T02:48:17;99792.89;;;14.62;58.32
61761;BME280;47664;51.660;-0.100;2023-07-16T02:50:44;99796.78;;;15.02;58.76
61761;BME280;47664;51.660;-0.100;2023-07-16T02:53:12;99799.83;;;15.29;58.21
61761;BME280;47664;51.660;-0.100;2023-07-16T02:55:39;99794.76;;;14.54;58.82
61761;BME280;47664;51.660;-0.100;2023-07-16T02:58:07;99798.28;;;14.84;59.70
61761;BME280;47664;51.660;-0.100;2023-07-16T03:00:35;99798.64;;;14.42;59.73
61761;BME280;47664;51.660;-0.100;2023-07-16T03:03:02;99805.35;;;14.99;59.36
61761;BME280;47664;51.660;-0.100;2023-07-16T03:05:30;99799.68;;;14.39;59.20
61761;BME280;47664;51.660;-0.100;2023-07-16T03:07:57;99803.37;;;14.69;58.87
61761;BME280;47664;51.660;-0.100;2023-07-16T03:10:24;99808.39;;;14.47;59.30
61761;BME280;47664;51.660;-0.100;2023-07-16T03:12:52;99819.64;;;14.30;60.30
61761;BME280;47664;51.660;-0.100;2023-07-16T03:15:19;99818.28;;;14.25;58.98
61761;BME280;47664;51.660;-0.100;2023-07-16T03:17:45;99825.36;;;14.53;59.02
61761;BME280;47664;51.660;-0.100;2023-07-16T03:20:12;99831.96;;;14.49;59.12
61761;BME280;47664;51.660;-0.100;2023-07-16T03:22:40;99831.94;;;15.00;58.58
61761;BME280;47664;51.660;-0.100;2023-07-16T03:25:08;99830.37;;;14.37;59.16
61761;BME280;47664;51.660;-0.100;2023-07-16T03:27:36;99839.09;;;14.48;58.41
61761;BME280;47664;51.660;-0.100;2023-07-16T03:30:04;99840.92;;;14.49;58.41
61761;BME280;47664;51.660;-0.100;2023-07-16T03:32:31;99853.03;;;14.24;58.88
61761;BME280;47664;51.660;-0.100;2023-07-16T03:34:58;99848.27;;;14.67;58.62
61761;BME280;47664;51.660;-0.100;2023-07-16T03:37:25;99856.44;;;14.34;59.01
61761;BME280;47664;51.660;-0.100;2023-07-16T03:39:53;99846.56;;;14.48;58.60
61761;BME280;47664;51.660;-0.100;2023-07-16T03:42:21;99856.23;;;14.58;57.98
61761;BME280;47664;51.660;-0.100;2023-07-16T03:44:48;99864.50;;;14.72;58.79
61761;BME280;47664;51.660;-0.100;2023-07-16T03:47:16;99875.61;;;14.04;58.92
61761;BME280;47664;51.660;-0.100;2023-07-16T03:49:43;99877.74;;;14.41;58.67
61761;BME280;47664;51.660;-0.100;2023-07-16T03:52:10;99878.51;;;14.04;58.87
61761;BME280;47664;51.660;-0.100;2023-07-16T03:54:36;99886.91;;;14.33;58.86
61761;BME280;47664;51.660;-0.100;2023-07-16T03:57:04;99888.08;;;14.25;59.57
61761;BME280;47664;51.660;-0.100;2023-07-16T03:59:32;99887.47;;;14.08;59.68
61761;BME280;47664;51.660;-0.100;2023-07-16T04:01:59;99900.31;;;13.76;59.77
61761;BME280;47664;51.660;-0.100;2023-07-16T04:04:26;99897.70;;;14.38;58.61
61761;BME280;47664;51.660;-0.100;2023-07-16T04:06:53;99898.21;;;14.77;58.11
61761;BME280;47664;51.660;-0.100;2023-07-16T04:09:20;99907.40;;;14.15;58.73
61761;BME280;47664;51.660;-0.100;2023-07-16T04:11:47;99906.23;;;14.52;58.26
61761;BME280;47664;51.660;-0.100;2023-07-16T04:14:15;99908.90;;;14.73;57.09
61761;BME280;47664;51.660;-0.100;2023-07-16T04:16:42;99913.33;;;14.40;57.35
61761;BME280;47664;51.660;-0.100;2023-07-16T04:19:09;99915.23;;;14.53;57.44
61761;BME280;47664;51.660;-0.100;2023-07-16T04:21:36;99914.88;;;14.08;58.44
61761;BME280;47664;51.660;-0.100;2023-07-16T04:24:04;99921.44;;;14.41;58.30
61761;BME280;47664;51.660;-0.100;2023-07-16T04:26:31;99923.28;;;14.17;58.11
61761;BME280;47664;51.660;-0.100;2023-07-16T04:28:58;99925.70;;;14.57;57.47
61761;BME280;47664;51.660;-0.100;2023-07-16T04:31:24;99931.16;;;14.11;58.38
61761;BME280;47664;51.660;-0.100;2023-07-16T04:33:52;99936.14;;;15.04;56.96
61761;BME280;47664;51.660;-0.100;2023-07-16T04:36:19;99938.59;;;14.23;56.97
61761;BME280;47664;51.660;-0.100;2023-07-16T04:38:47;99943.74;;;14.67;57.63
61761;BME280;47664;51.660;-0.100;2023-07-16T04:41:16;99939.50;;;14.97;56.33
61761;BME280;47664;51.660;-0.100;2023-07-16T04:43:44;99942.04;;;14.81;56.43
61761;BME280;47664;51.660;-0.100;2023-07-16T04:46:11;99948.57;;;14.99;56.99
61761;BME280;47664;51.660;-0.100;2023-07-16T04:48:39;99950.49;;;14.83;57.43
61761;BME280;47664;51.660;-0.100;2023-07-16T04:51:07;99956.95;;;14.08;58.45
61761;BME280;47664;51.660;-0.100;2023-07-16T04:53:34;99959.39;;;14.09;57.90
61761;BME280;47664;51.660;-0.100;2023-07-16T04:56:01;99959.58;;;13.89;58.38
61761;BME280;47664;51.660;-0.100;2023-07-16T04:58:28;99962.19;;;14.21;57.97
61761;BME280;47664;51.660;-0.100;2023-07-16T05:00:55;99964.50;;;14.23;57.57
61761;BME280;47664;51.660;-0.100;2023-07-16T05:03:22;99968.15;;;14.04;58.95
61761;BME280;47664;51.660;-0.100;2023-07-16T05:05:49;99970.54;;;14.40;57.52
61761;BME280;47664;51.660;-0.100;2023-07-16T05:08:17;99968.56;;;14.62;56.73
61761;BME280;47664;51.660;-0.100;2023-07-16T05:10:44;99972.61;;;14.60;56.64
61761;BME280;47664;51.660;-0.100;2023-07-16T05:13:11;99973.61;;;14.76;56.33
61761;BME280;47664;51.660;-0.100;2023-07-16T05:15:38;99982.54;;;14.60;56.60
61761;BME280;47664;51.660;-0.100;2023-07-16T05:18:05;99993.57;;;14.16;57.51
61761;BME280;47664;51.660;-0.100;2023-07-16T05:20:32;99991.20;;;14.35;56.75
61761;BME280;47664;51.660;-0.100;2023-07-16T05:23:04;99990.62;;;14.48;56.37
61761;BME280;47664;51.660;-0.100;2023-07-16T05:25:31;99994.95;;;14.20;55.87
61761;BME280;47664;51.660;-0.100;2023-07-16T05:27:58;99991.75;;;14.54;56.03
61761;BME280;47664;51.660;-0.100;2023-07-16T05:30:25;99995.94;;;14.22;56.76
61761;BME280;47664;51.660;-0.100;2023-07-16T05:32:53;100003.91;;;14.41;57.27
61761;BME280;47664;51.660;-0.100;2023-07-16T05:35:20;100013.12;;;14.05;57.17
61761;BME280;47664;51.660;-0.100;2023-07-16T05:37:47;100014.05;;;14.27;57.43
61761;BME280;47664;51.660;-0.100;2023-07-16T05:40:14;100023.82;;;14.44;57.43
61761;BME280;47664;51.660;-0.100;2023-07-16T05:42:41;100018.60;;;14.55;57.55
61761;BME280;47664;51.660;-0.100;2023-07-16T05:45:09;100021.56;;;14.27;58.14
61761;BME280;47664;51.660;-0.100;2023-07-16T05:47:36;100030.81;;;14.31;57.34
61761;BME280;47664;51.660;-0.100;2023-07-16T05:50:05;100027.45;;;14.38;57.50
61761;BME280;47664;51.660;-0.100;2023-07-16T05:52:33;100032.34;;;14.47;56.94
61761;BME280;47664;51.660;-0.100;2023-07-16T05:55:05;100034.31;;;14.36;58.25
61761;BME280;47664;51.660;-0.100;2023-07-16T05:57:32;100030.04;;;14.62;56.73
61761;BME280;47664;51.660;-0.100;2023-07-16T05:59:59;100029.07;;;14.98;55.96
61761;BME280;47664;51.660;-0.100;2023-07-16T06:02:26;100031.74;;;14.50;56.38
61761;BME280;47664;51.660;-0.100;2023-07-16T06:04:53;100033.67;;;15.05;55.15
61761;BME280;47664;51.660;-0.100;2023-07-16T06:07:21;100029.66;;;14.88;55.08
61761;BME280;47664;51.660;-0.100;2023-07-16T06:09:48;100037.83;;;15.14;55.49
61761;BME280;47664;51.660;-0.100;2023-07-16T06:12:15;100034.30;;;14.99;55.31
61761;BME280;47664;51.660;-0.100;2023-07-16T06:14:42;100034.07;;;14.87;55.70
61761;BME280;47664;51.660;-0.100;2023-07-16T06:17:09;100041.42;;;14.48;56.28
61761;BME280;47664;51.660;-0.100;2023-07-16T06:19:36;100053.69;;;15.13;55.74
61761;BME280;47664;51.660;-0.100;2023-07-16T06:22:04;100055.17;;;15.06;55.44
61761;BME280;47664;51.660;-0.100;2023-07-16T06:24:31;100046.21;;;14.74;55.26
61761;BME280;47664;51.660;-0.100;2023-07-16T06:26:58;100059.76;;;15.20;54.79
61761;BME280;47664;51.660;-0.100;2023-07-16T06:29:25;100048.27;;;15.18;54.28
61761;BME280;47664;51.660;-0.100;2023-07-16T06:31:55;100058.34;;;15.61;53.98
61761;BME280;47664;51.660;-0.100;2023-07-16T06:34:22;100054.72;;;15.14;54.75
61761;BME280;47664;51.660;-0.100;2023-07-16T06:36:50;100067.60;;;14.70;54.78
61761;BME280;47664;51.660;-0.100;2023-07-16T06:39:17;100078.83;;;14.80;54.95
61761;BME280;47664;51.660;-0.100;2023-07-16T06:41:44;100076.06;;;15.54;54.45
61761;BME280;47664;51.660;-0.100;2023-07-16T06:44:12;100076.50;;;15.16;54.73
61761;BME280;47664;51.660;-0.100;2023-07-16T06:46:40;100082.53;;;14.80;55.06
61761;BME280;47664;51.660;-0.100;2023-07-16T06:49:08;100084.66;;;15.22;54.61
61761;BME280;47664;51.660;-0.100;2023-07-16T06:51:36;100089.11;;;15.47;54.48
61761;BME280;47664;51.660;-0.100;2023-07-16T06:54:08;100096.30;;;15.45;54.26
61761;BME280;47664;51.660;-0.100;2023-07-16T06:56:35;100100.96;;;15.13;54.91
61761;BME280;47664;51.660;-0.100;2023-07-16T06:59:03;100105.22;;;15.28;54.70
61761;BME280;47664;51.660;-0.100;2023-07-16T07:01:30;100104.52;;;15.77;52.86
61761;BME280;47664;51.660;-0.100;2023-07-16T07:03:57;100107.73;;;16.32;52.79
61761;BME280;47664;51.660;-0.100;2023-07-16T07:06:24;100115.68;;;15.53;53.17
61761;BME280;47664;51.660;-0.100;2023-07-16T07:08:51;100118.26;;;15.67;53.66
61761;BME280;47664;51.660;-0.100;2023-07-16T07:11:19;100119.15;;;15.67;53.12
61761;BME280;47664;51.660;-0.100;2023-07-16T07:13:46;100124.69;;;16.28;52.23
61761;BME280;47664;51.660;-0.100;2023-07-16T07:16:14;100131.06;;;15.97;51.99
61761;BME280;47664;51.660;-0.100;2023-07-16T07:18:41;100132.24;;;15.17;53.84
61761;BME280;47664;51.660;-0.100;2023-07-16T07:21:13;100134.75;;;15.24;53.47
61761;BME280;47664;51.660;-0.100;2023-07-16T07:23:42;100133.00;;;15.25;53.95
61761;BME280;47664;51.660;-0.100;2023-07-16T07:26:09;100140.52;;;15.67;53.94
61761;BME280;47664;51.660;-0.100;2023-07-16T07:28:41;100151.84;;;15.63;53.60
61761;BME280;47664;51.660;-0.100;2023-07-16T07:31:08;100153.43;;;15.67;53.27
61761;BME280;47664;51.660;-0.100;2023-07-16T07:33:36;100153.21;;;15.74;53.11
61761;BME280;47664;51.660;-0.100;2023-07-16T07:36:03;100156.37;;;15.65;53.91
61761;BME280;47664;51.660;-0.100;2023-07-16T07:38:30;100160.13;;;15.64;53.33
61761;BME280;47664;51.660;-0.100;2023-07-16T07:40:57;100163.39;;;15.69;53.48
61761;BME280;47664;51.660;-0.100;2023-07-16T07:43:24;100166.37;;;15.84;53.17
61761;BME280;47664;51.660;-0.100;2023-07-16T07:45:51;100184.12;;;15.91;53.99
61761;BME280;47664;51.660;-0.100;2023-07-16T07:48:18;100176.27;;;14.93;54.05
61761;BME280;47664;51.660;-0.100;2023-07-16T07:50:46;100192.09;;;15.49;53.74
61761;BME280;47664;51.660;-0.100;2023-07-16T07:53:14;100193.45;;;15.76;52.91
61761;BME280;47664;51.660;-0.100;2023-07-16T07:55:46;100194.97;;;15.98;53.32
61761;BME280;47664;51.660;-0.100;2023-07-16T07:58:14;100190.94;;;16.06;52.81
61761;BME280;47664;51.660;-0.100;2023-07-16T08:00:41;100183.43;;;15.39;53.60
61761;BME280;47664;51.660;-0.100;2023-07-16T08:03:07;100186.31;;;15.19;54.43
61761;BME280;47664;51.660;-0.100;2023-07-16T08:05:34;100189.43;;;15.31;54.95
61761;BME280;47664;51.660;-0.100;2023-07-16T08:08:01;100189.29;;;15.32;54.27
61761;BME280;47664;51.660;-0.100;2023-07-16T08:10:28;100182.38;;;15.56;53.96
61761;BME280;47664;51.660;-0.100;2023-07-16T08:12:56;100179.16;;;15.52;54.51
61761;BME280;47664;51.660;-0.100;2023-07-16T08:15:22;100179.00;;;15.58;54.21
61761;BME280;47664;51.660;-0.100;2023-07-16T08:17:50;100174.36;;;16.25;53.16
61761;BME280;47664;51.660;-0.100;2023-07-16T08:20:17;100175.07;;;15.51;52.64
61761;BME280;47664;51.660;-0.100;2023-07-16T08:22:45;100174.56;;;16.56;52.31
61761;BME280;47664;51.660;-0.100;2023-07-16T08:25:12;100185.08;;;16.41;52.19
61761;BME280;47664;51.660;-0.100;2023-07-16T08:27:39;100187.23;;;16.12;52.46
61761;BME280;47664;51.660;-0.100;2023-07-16T08:30:08;100185.96;;;15.78;52.93
61761;BME280;47664;51.660;-0.100;2023-07-16T08:32:35;100198.44;;;15.70;53.23
61761;BME280;47664;51.660;-0.100;2023-07-16T08:35:03;100192.12;;;16.09;53.03
61761;BME280;47664;51.660;-0.100;2023-07-16T08:37:30;100198.93;;;16.22;52.33
61761;BME280;47664;51.660;-0.100;2023-07-16T08:39:57;100203.73;;;16.41;51.77
61761;BME280;47664;51.660;-0.100;2023-07-16T08:42:24;100203.38;;;16.33;52.04
61761;BME280;47664;51.660;-0.100;2023-07-16T08:44:52;100205.53;;;16.50;52.00
61761;BME280;47664;51.660;-0.100;2023-07-16T08:47:19;100214.16;;;16.43;51.50
61761;BME280;47664;51.660;-0.100;2023-07-16T08:49:54;100217.30;;;16.76;51.41
61761;BME280;47664;51.660;-0.100;2023-07-16T08:52:22;100210.48;;;16.45;50.97
61761;BME280;47664;51.660;-0.100;2023-07-16T08:54:49;100214.46;;;16.41;50.56
61761;BME280;47664;51.660;-0.100;2023-07-16T08:57:16;100221.17;;;16.55;50.76
61761;BME280;47664;51.660;-0.100;2023-07-16T08:59:46;100222.81;;;17.25;50.26
61761;BME280;47664;51.660;-0.100;2023-07-16T09:02:16;100225.90;;;17.32;50.71
61761;BME280;47664;51.660;-0.100;2023-07-16T09:04:45;100223.95;;;17.21;49.25
61761;BME280;47664;51.660;-0.100;2023-07-16T09:07:13;100234.02;;;17.33;48.39
61761;BME280;47664;51.660;-0.100;2023-07-16T09:09:55;100231.67;;;17.70;48.59
61761;BME280;47664;51.660;-0.100;2023-07-16T09:12:24;100228.13;;;17.59;48.10
61761;BME280;47664;51.660;-0.100;2023-07-16T09:14:50;100225.06;;;17.24;48.39
61761;BME280;47664;51.660;-0.100;2023-07-16T09:17:20;100227.98;;;17.31;47.39
61761;BME280;47664;51.660;-0.100;2023-07-16T09:19:47;100230.96;;;17.62;47.08
61761;BME280;47664;51.660;-0.100;2023-07-16T09:22:17;100229.83;;;17.53;46.78
61761;BME280;47664;51.660;-0.100;2023-07-16T09:24:45;100230.00;;;17.83;46.41
61761;BME280;47664;51.660;-0.100;2023-07-16T09:27:13;100236.62;;;17.83;47.24
61761;BME280;47664;51.660;-0.100;2023-07-16T09:29:41;100239.05;;;17.92;47.21
61761;BME280;47664;51.660;-0.100;2023-07-16T09:32:14;100246.14;;;18.16;46.68
61761;BME280;47664;51.660;-0.100;2023-07-16T09:34:40;100243.28;;;18.23;45.34
61761;BME280;47664;51.660;-0.100;2023-07-16T09:37:07;100240.93;;;18.51;45.57
61761;BME280;47664;51.660;-0.100;2023-07-16T09:39:36;100242.34;;;18.19;46.23
61761;BME280;47664;51.660;-0.100;2023-07-16T09:42:05;100244.42;;;18.34;44.98
61761;BME280;47664;51.660;-0.100;2023-07-16T09:44:34;100243.34;;;17.92;45.42
61761;BME280;47664;51.660;-0.100;2023-07-16T09:47:02;100240.44;;;18.69;43.32
61761;BME280;47664;51.660;-0.100;2023-07-16T09:49:29;100245.06;;;18.90;42.76
61761;BME280;47664;51.660;-0.100;2023-07-16T09:51:57;100244.31;;;18.67;42.91
61761;BME280;47664;51.660;-0.100;2023-07-16T09:54:25;100249.35;;;18.28;42.91
61761;BME280;47664;51.660;-0.100;2023-07-16T09:56:56;100252.33;;;17.92;43.12
61761;BME280;47664;51.660;-0.100;2023-07-16T09:59:27;100263.69;;;18.16;44.35
61761;BME280;47664;51.660;-0.100;2023-07-16T10:01:55;100257.14;;;18.79;43.57
61761;BME280;47664;51.660;-0.100;2023-07-16T10:04:22;100254.44;;;18.91;42.26
61761;BME280;47664;51.660;-0.100;2023-07-16T10:06:51;100254.69;;;19.05;41.34
61761;BME280;47664;51.660;-0.100;2023-07-16T10:09:36;100255.76;;;18.40;41.52
61761;BME280;47664;51.660;-0.100;2023-07-16T10:12:11;100250.49;;;19.41;39.87
61761;BME280;47664;51.660;-0.100;2023-07-16T10:14:41;100256.40;;;20.08;38.39
61761;BME280;47664;51.660;-0.100;2023-07-16T10:17:13;100250.84;;;20.18;39.09
61761;BME280;47664;51.660;-0.100;2023-07-16T10:19:47;100253.28;;;21.01;36.99
61761;BME280;47664;51.660;-0.100;2023-07-16T10:22:17;100255.39;;;21.05;35.99
61761;BME280;47664;51.660;-0.100;2023-07-16T10:24:44;100259.26;;;20.75;36.54
61761;BME280;47664;51.660;-0.100;2023-07-16T10:27:27;100256.33;;;21.28;36.41
61761;BME280;47664;51.660;-0.100;2023-07-16T10:29:54;100259.15;;;21.19;35.82
61761;BME280;47664;51.660;-0.100;2023-07-16T10:32:21;100261.79;;;21.14;34.83
61761;BME280;47664;51.660;-0.100;2023-07-16T10:34:49;100261.76;;;22.32;34.93
61761;BME280;47664;51.660;-0.100;2023-07-16T10:37:16;100267.11;;;21.36;36.38
61761;BME280;47664;51.660;-0.100;2023-07-16T10:39:46;100263.23;;;20.36;37.42
61761;BME280;47664;51.660;-0.100;2023-07-16T10:42:15;100268.06;;;20.28;36.63
61761;BME280;47664;51.660;-0.100;2023-07-16T10:44:42;100271.52;;;20.62;36.76
61761;BME280;47664;51.660;-0.100;2023-07-16T10:47:19;100273.92;;;20.89;36.34
61761;BME280;47664;51.660;-0.100;2023-07-16T10:49:47;100275.60;;;20.99;36.46
61761;BME280;47664;51.660;-0.100;2023-07-16T10:52:14;100276.33;;;21.46;35.94
61761;BME280;47664;51.660;-0.100;2023-07-16T10:54:41;100276.42;;;21.60;35.12
61761;BME280;47664;51.660;-0.100;2023-07-16T10:57:08;100283.23;;;22.39;34.46
61761;BME280;47664;51.660;-0.100;2023-07-16T10:59:37;100277.64;;;21.92;35.17
61761;BME280;47664;51.660;-0.100;2023-07-16T11:02:08;100274.36;;;22.06;35.24
61761;BME280;47664;51.660;-0.100;2023-07-16T11:04:37;100278.12;;;21.64;35.08
61761;BME280;47664;51.660;-0.100;2023-07-16T11:07:07;100272.27;;;20.84;35.46
61761;BME280;47664;51.660;-0.100;2023-07-16T11:09:40;100270.57;;;20.46;35.85
61761;BME280;47664;51.660;-0.100;2023-07-16T11:12:09;100269.24;;;20.69;35.94
61761;BME280;47664;51.660;-0.100;2023-07-16T11:14:36;100277.72;;;20.71;36.02
61761;BME280;47664;51.660;-0.100;2023-07-16T11:17:05;100272.92;;;20.56;36.78
61761;BME280;47664;51.660;-0.100;2023-07-16T11:19:33;100276.37;;;19.64;37.59
61761;BME280;47664;51.660;-0.100;2023-07-16T11:22:01;100275.59;;;20.28;35.80
61761;BME280;47664;51.660;-0.100;2023-07-16T11:24:28;100281.97;;;20.23;36.67
61761;BME280;47664;51.660;-0.100;2023-07-16T11:26:56;100285.77;;;19.94;37.49
61761;BME280;47664;51.660;-0.100;2023-07-16T11:29:24;100289.18;;;20.12;37.81
61761;BME280;47664;51.660;-0.100;2023-07-16T11:31:52;100284.52;;;20.19;38.26
61761;BME280;47664;51.660;-0.100;2023-07-16T11:34:21;100281.51;;;19.79;37.65
61761;BME280;47664;51.660;-0.100;2023-07-16T11:36:48;100294.13;;;19.78;38.52
61761;BME280;47664;51.660;-0.100;2023-07-16T11:39:16;100287.38;;;19.59;39.31
61761;BME280;47664;51.660;-0.100;2023-07-16T11:41:54;100283.03;;;19.80;38.43
61761;BME280;47664;51.660;-0.100;2023-07-16T11:44:21;100286.09;;;19.67;39.05
61761;BME280;47664;51.660;-0.100;2023-07-16T11:46:48;100287.71;;;19.94;38.45
61761;BME280;47664;51.660;-0.100;2023-07-16T11:49:15;100288.75;;;19.86;39.64
61761;BME280;47664;51.660;-0.100;2023-07-16T11:51:42;100288.32;;;19.79;39.28
61761;BME280;47664;51.660;-0.100;2023-07-16T11:54:10;100286.09;;;19.45;40.03
61761;BME280;47664;51.660;-0.100;2023-07-16T11:56:37;100279.95;;;19.52;38.66
61761;BME280;47664;51.660;-0.100;2023-07-16T11:59:04;100284.94;;;20.28;39.29
61761;BME280;47664;51.660;-0.100;2023-07-16T12:01:31;100284.70;;;19.97;38.52
61761;BME280;47664;51.660;-0.100;2023-07-16T12:03:58;100280.88;;;20.54;37.95
61761;BME280;47664;51.660;-0.100;2023-07-16T12:06:25;100287.53;;;20.61;37.94
61761;BME280;47664;51.660;-0.100;2023-07-16T12:08:52;100285.19;;;20.16;37.66
61761;BME280;47664;51.660;-0.100;2023-07-16T12:11:19;100285.92;;;19.54;37.75
61761;BME280;47664;51.660;-0.100;2023-07-16T12:13:46;100283.99;;;20.19;37.52
61761;BME280;47664;51.660;-0.100;2023-07-16T12:16:13;100280.58;;;20.19;37.27
61761;BME280;47664;51.660;-0.100;2023-07-16T12:18:40;100293.64;;;20.51;37.10
61761;BME280;47664;51.660;-0.100;2023-07-16T12:21:07;100289.04;;;20.60;37.90
61761;BME280;47664;51.660;-0.100;2023-07-16T12:23:35;100290.41;;;20.41;36.76
61761;BME280;47664;51.660;-0.100;2023-07-16T12:26:02;100293.75;;;20.38;38.07
61761;BME280;47664;51.660;-0.100;2023-07-16T12:28:29;100298.62;;;19.85;38.10
61761;BME280;47664;51.660;-0.100;2023-07-16T12:30:56;100297.72;;;19.82;38.81
61761;BME280;47664;51.660;-0.100;2023-07-16T12:33:23;100295.95;;;20.38;37.61
61761;BME280;47664;51.660;-0.100;2023-07-16T12:35:50;100308.66;;;20.53;37.92
61761;BME280;47664;51.660;-0.100;2023-07-16T12:38:17;100307.03;;;20.30;37.45
61761;BME280;47664;51.660;-0.100;2023-07-16T12:40:44;100294.46;;;20.76;37.49
61761;BME280;47664;51.660;-0.100;2023-07-16T12:43:11;100297.13;;;20.29;36.35
61761;BME280;47664;51.660;-0.100;2023-07-16T12:45:38;100297.82;;;20.75;36.94
61761;BME280;47664;51.660;-0.100;2023-07-16T12:48:05;100298.97;;;20.50;37.05
61761;BME280;47664;51.660;-0.100;2023-07-16T12:50:32;100301.92;;;20.72;37.68